sensor_id;sensor_type;location;lat;lon;timestamp;temperature;humidity
10300;DHT22;5195;48.562;9.192;2023-12-14T00:00:36;8.10;66.20
10300;DHT22;5195;48.562;9.192;2023-12-14T00:03:11;7.90;66.70
10300;DHT22;5195;48.562;9.192;2023-12-14T00:05:47;8.10;66.50
10300;DHT22;5195;48.562;9.192;2023-12-14T00:08:22;8.00;66.30
10300;DHT22;5195;48.562;9.192;2023-12-14T00:11:02;8.20;66.00
10300;DHT22;5195;48.562;9.192;2023-12-14T00:13:34;8.20;65.90
10300;DHT22;5195;48.562;9.192;2023-12-14T00:16:09;8.30;65.50
10300;DHT22;5195;48.562;9.192;2023-12-14T00:18:45;8.30;65.50
10300;DHT22;5195;48.562;9.192;2023-12-14T00:21:20;8.40;65.00
10300;DHT22;5195;48.562;9.192;2023-12-14T00:23:56;8.60;63.90
10300;DHT22;5195;48.562;9.192;2023-12-14T00:26:32;8.60;64.00
10300;DHT22;5195;48.562;9.192;2023-12-14T00:29:08;8.10;65.80
10300;DHT22;5195;48.562;9.192;2023-12-14T00:31:43;8.10;65.80
10300;DHT22;5195;48.562;9.192;2023-12-14T00:34:19;8.20;65.50
10300;DHT22;5195;48.562;9.192;2023-12-14T00:36:55;8.20;65.40
10300;DHT22;5195;48.562;9.192;2023-12-14T00:39:30;8.10;66.10
10300;DHT22;5195;48.562;9.192;2023-12-14T00:42:06;7.90;66.80
10300;DHT22;5195;48.562;9.192;2023-12-14T00:44:41;7.80;67.60
10300;DHT22;5195;48.562;9.192;2023-12-14T00:47:18;7.90;67.20
10300;DHT22;5195;48.562;9.192;2023-12-14T00:49:54;8.00;66.90
10300;DHT22;5195;48.562;9.192;2023-12-14T00:52:30;7.70;68.00
10300;DHT22;5195;48.562;9.192;2023-12-14T00:55:06;7.70;68.00
10300;DHT22;5195;48.562;9.192;2023-12-14T00:57:41;7.60;68.60
10300;DHT22;5195;48.562;9.192;2023-12-14T01:00:18;7.50;69.60
10300;DHT22;5195;48.562;9.192;2023-12-14T01:02:53;7.40;69.40
10300;DHT22;5195;48.562;9.192;2023-12-14T01:05:29;7.40;69.80
10300;DHT22;5195;48.562;9.192;2023-12-14T01:08:05;7.70;69.20
10300;DHT22;5195;48.562;9.192;2023-12-14T01:10:40;7.70;68.50
10300;DHT22;5195;48.562;9.192;2023-12-14T01:13:16;8.00;67.90
10300;DHT22;5195;48.562;9.192;2023-12-14T01:15:51;8.30;66.40
10300;DHT22;5195;48.562;9.192;2023-12-14T01:18:27;8.30;66.20
10300;DHT22;5195;48.562;9.192;2023-12-14T01:21:03;8.40;65.90
10300;DHT22;5195;48.562;9.192;2023-12-14T01:23:38;8.70;65.10
10300;DHT22;5195;48.562;9.192;2023-12-14T01:26:15;8.90;64.20
10300;DHT22;5195;48.562;9.192;2023-12-14T01:28:51;8.70;64.30
10300;DHT22;5195;48.562;9.192;2023-12-14T01:31:26;8.70;64.40
10300;DHT22;5195;48.562;9.192;2023-12-14T01:34:02;8.60;64.60
10300;DHT22;5195;48.562;9.192;2023-12-14T01:36:38;8.10;67.30
10300;DHT22;5195;48.562;9.192;2023-12-14T01:39:14;8.10;66.60
10300;DHT22;5195;48.562;9.192;2023-12-14T01:41:50;8.30;66.80
10300;DHT22;5195;48.562;9.192;2023-12-14T01:44:26;8.30;66.80
10300;DHT22;5195;48.562;9.192;2023-12-14T01:47:01;8.10;67.40
10300;DHT22;5195;48.562;9.192;2023-12-14T01:49:37;8.00;68.10
10300;DHT22;5195;48.562;9.192;2023-12-14T01:52:06;8.20;67.70
10300;DHT22;5195;48.562;9.192;2023-12-14T01:54:31;8.20;67.70
10300;DHT22;5195;48.562;9.192;2023-12-14T01:56:57;8.40;67.50
10300;DHT22;5195;48.562;9.192;2023-12-14T01:59:24;8.40;67.20
10300;DHT22;5195;48.562;9.192;2023-12-14T02:01:52;8.20;67.80
10300;DHT22;5195;48.562;9.192;2023-12-14T02:04:18;8.30;67.80
10300;DHT22;5195;48.562;9.192;2023-12-14T02:06:43;8.60;66.70
10300;DHT22;5195;48.562;9.192;2023-12-14T02:09:09;8.60;66.40
10300;DHT22;5195;48.562;9.192;2023-12-14T02:11:34;8.40;67.00
10300;DHT22;5195;48.562;9.192;2023-12-14T02:14:04;8.20;67.70
10300;DHT22;5195;48.562;9.192;2023-12-14T02:16:29;8.30;67.60
10300;DHT22;5195;48.562;9.192;2023-12-14T02:18:54;8.60;66.30
10300;DHT22;5195;48.562;9.192;2023-12-14T02:21:20;8.60;66.10
10300;DHT22;5195;48.562;9.192;2023-12-14T02:23:45;8.60;65.90
10300;DHT22;5195;48.562;9.192;2023-12-14T02:26:11;8.60;65.90
10300;DHT22;5195;48.562;9.192;2023-12-14T02:28:36;8.60;65.80
10300;DHT22;5195;48.562;9.192;2023-12-14T02:31:02;8.50;65.70
10300;DHT22;5195;48.562;9.192;2023-12-14T02:33:28;8.50;65.70
10300;DHT22;5195;48.562;9.192;2023-12-14T02:36:04;8.50;65.70
10300;DHT22;5195;48.562;9.192;2023-12-14T02:38:40;8.30;67.00
10300;DHT22;5195;48.562;9.192;2023-12-14T02:41:16;8.30;66.90
10300;DHT22;5195;48.562;9.192;2023-12-14T02:43:52;8.30;66.90
10300;DHT22;5195;48.562;9.192;2023-12-14T02:46:27;8.10;67.70
10300;DHT22;5195;48.562;9.192;2023-12-14T02:49:03;8.20;67.80
10300;DHT22;5195;48.562;9.192;2023-12-14T02:51:39;8.20;67.70
10300;DHT22;5195;48.562;9.192;2023-12-14T02:54:14;8.10;68.40
10300;DHT22;5195;48.562;9.192;2023-12-14T02:56:50;8.20;68.40
10300;DHT22;5195;48.562;9.192;2023-12-14T02:59:26;8.10;69.00
10300;DHT22;5195;48.562;9.192;2023-12-14T03:02:03;7.90;69.90
10300;DHT22;5195;48.562;9.192;2023-12-14T03:04:38;7.90;69.90
10300;DHT22;5195;48.562;9.192;2023-12-14T03:07:15;8.10;69.70
10300;DHT22;5195;48.562;9.192;2023-12-14T03:09:52;8.50;68.40
10300;DHT22;5195;48.562;9.192;2023-12-14T03:12:28;8.50;68.10
10300;DHT22;5195;48.562;9.192;2023-12-14T03:15:04;8.60;67.70
10300;DHT22;5195;48.562;9.192;2023-12-14T03:17:40;8.50;67.70
10300;DHT22;5195;48.562;9.192;2023-12-14T03:20:16;8.70;67.50
10300;DHT22;5195;48.562;9.192;2023-12-14T03:22:51;8.70;67.50
10300;DHT22;5195;48.562;9.192;2023-12-14T03:25:27;8.70;67.10
10300;DHT22;5195;48.562;9.192;2023-12-14T03:28:02;9.00;66.00
10300;DHT22;5195;48.562;9.192;2023-12-14T03:30:38;9.20;64.90
10300;DHT22;5195;48.562;9.192;2023-12-14T03:33:14;9.50;63.70
10300;DHT22;5195;48.562;9.192;2023-12-14T03:35:50;9.50;63.70
10300;DHT22;5195;48.562;9.192;2023-12-14T03:38:26;9.60;63.10
10300;DHT22;5195;48.562;9.192;2023-12-14T03:41:01;9.30;63.50
10300;DHT22;5195;48.562;9.192;2023-12-14T03:43:38;9.00;65.10
10300;DHT22;5195;48.562;9.192;2023-12-14T03:46:14;8.90;65.40
10300;DHT22;5195;48.562;9.192;2023-12-14T03:48:50;8.80;65.30
10300;DHT22;5195;48.562;9.192;2023-12-14T03:51:25;8.60;66.20
10300;DHT22;5195;48.562;9.192;2023-12-14T03:54:01;8.70;66.40
10300;DHT22;5195;48.562;9.192;2023-12-14T03:56:36;9.00;65.50
10300;DHT22;5195;48.562;9.192;2023-12-14T03:59:12;9.20;64.50
10300;DHT22;5195;48.562;9.192;2023-12-14T04:01:48;9.40;63.80
10300;DHT22;5195;48.562;9.192;2023-12-14T04:04:23;9.50;63.30
10300;DHT22;5195;48.562;9.192;2023-12-14T04:06:59;9.30;63.60
10300;DHT22;5195;48.562;9.192;2023-12-14T04:09:35;9.00;64.60
10300;DHT22;5195;48.562;9.192;2023-12-14T04:12:12;9.00;65.00
10300;DHT22;5195;48.562;9.192;2023-12-14T04:14:48;9.10;64.90
10300;DHT22;5195;48.562;9.192;2023-12-14T04:17:24;9.00;64.50
10300;DHT22;5195;48.562;9.192;2023-12-14T04:19:59;9.10;64.60
10300;DHT22;5195;48.562;9.192;2023-12-14T04:22:35;9.30;63.90
10300;DHT22;5195;48.562;9.192;2023-12-14T04:25:11;8.90;65.10
10300;DHT22;5195;48.562;9.192;2023-12-14T04:27:48;8.60;66.10
10300;DHT22;5195;48.562;9.192;2023-12-14T04:30:23;8.60;66.00
10300;DHT22;5195;48.562;9.192;2023-12-14T04:32:59;8.40;67.00
10300;DHT22;5195;48.562;9.192;2023-12-14T04:35:35;8.60;67.10
10300;DHT22;5195;48.562;9.192;2023-12-14T04:38:10;8.90;65.90
10300;DHT22;5195;48.562;9.192;2023-12-14T04:40:46;9.20;65.00
10300;DHT22;5195;48.562;9.192;2023-12-14T04:43:22;9.10;65.00
10300;DHT22;5195;48.562;9.192;2023-12-14T04:45:57;8.80;65.80
10300;DHT22;5195;48.562;9.192;2023-12-14T04:48:33;8.60;66.80
10300;DHT22;5195;48.562;9.192;2023-12-14T04:51:11;8.50;67.70
10300;DHT22;5195;48.562;9.192;2023-12-14T04:53:45;8.60;67.00
10300;DHT22;5195;48.562;9.192;2023-12-14T04:56:20;8.60;67.00
10300;DHT22;5195;48.562;9.192;2023-12-14T04:58:56;8.50;67.50
10300;DHT22;5195;48.562;9.192;2023-12-14T05:01:32;8.30;68.20
10300;DHT22;5195;48.562;9.192;2023-12-14T05:04:07;8.10;68.70
10300;DHT22;5195;48.562;9.192;2023-12-14T05:06:43;8.00;69.10
10300;DHT22;5195;48.562;9.192;2023-12-14T05:09:19;8.30;68.70
10300;DHT22;5195;48.562;9.192;2023-12-14T05:11:55;8.30;68.70
10300;DHT22;5195;48.562;9.192;2023-12-14T05:14:31;8.20;69.20
10300;DHT22;5195;48.562;9.192;2023-12-14T05:17:06;8.10;69.80
10300;DHT22;5195;48.562;9.192;2023-12-14T05:19:42;8.30;69.40
10300;DHT22;5195;48.562;9.192;2023-12-14T05:22:17;8.30;69.00
10300;DHT22;5195;48.562;9.192;2023-12-14T05:24:53;8.50;68.50
10300;DHT22;5195;48.562;9.192;2023-12-14T05:27:29;8.80;67.00
10300;DHT22;5195;48.562;9.192;2023-12-14T05:30:06;9.10;66.00
10300;DHT22;5195;48.562;9.192;2023-12-14T05:32:42;9.30;65.10
10300;DHT22;5195;48.562;9.192;2023-12-14T05:35:17;9.10;65.30
10300;DHT22;5195;48.562;9.192;2023-12-14T05:37:53;8.90;66.30
10300;DHT22;5195;48.562;9.192;2023-12-14T05:40:28;8.60;67.40
10300;DHT22;5195;48.562;9.192;2023-12-14T05:43:04;8.70;67.60
10300;DHT22;5195;48.562;9.192;2023-12-14T05:45:40;9.00;66.40
10300;DHT22;5195;48.562;9.192;2023-12-14T05:48:16;8.90;66.30
10300;DHT22;5195;48.562;9.192;2023-12-14T05:50:52;9.00;66.20
10300;DHT22;5195;48.562;9.192;2023-12-14T05:53:27;9.00;66.40
10300;DHT22;5195;48.562;9.192;2023-12-14T05:56:03;8.70;67.00
10300;DHT22;5195;48.562;9.192;2023-12-14T05:58:39;8.80;66.90
10300;DHT22;5195;48.562;9.192;2023-12-14T06:01:18;8.60;67.60
10300;DHT22;5195;48.562;9.192;2023-12-14T06:03:54;8.60;67.60
10300;DHT22;5195;48.562;9.192;2023-12-14T06:06:30;8.40;69.10
10300;DHT22;5195;48.562;9.192;2023-12-14T06:09:05;8.50;68.20
10300;DHT22;5195;48.562;9.192;2023-12-14T06:11:44;8.80;66.90
10300;DHT22;5195;48.562;9.192;2023-12-14T06:14:19;8.80;66.60
10300;DHT22;5195;48.562;9.192;2023-12-14T06:16:55;8.80;66.50
10300;DHT22;5195;48.562;9.192;2023-12-14T06:19:31;8.80;66.70
10300;DHT22;5195;48.562;9.192;2023-12-14T06:22:06;8.50;67.40
10300;DHT22;5195;48.562;9.192;2023-12-14T06:24:42;8.40;68.10
10300;DHT22;5195;48.562;9.192;2023-12-14T06:27:17;8.20;69.20
10300;DHT22;5195;48.562;9.192;2023-12-14T06:29:53;8.40;69.00
10300;DHT22;5195;48.562;9.192;2023-12-14T08:30:43;10.30;60.30
10300;DHT22;5195;48.562;9.192;2023-12-14T08:33:29;10.00;60.80
10300;DHT22;5195;48.562;9.192;2023-12-14T08:36:04;9.90;62.40
10300;DHT22;5195;48.562;9.192;2023-12-14T08:38:40;9.60;63.10
10300;DHT22;5195;48.562;9.192;2023-12-14T08:41:16;9.40;64.30
10300;DHT22;5195;48.562;9.192;2023-12-14T08:43:52;9.40;65.10
10300;DHT22;5195;48.562;9.192;2023-12-14T08:46:27;9.30;65.10
10300;DHT22;5195;48.562;9.192;2023-12-14T08:49:03;9.40;66.00
10300;DHT22;5195;48.562;9.192;2023-12-14T08:51:39;9.40;65.40
10300;DHT22;5195;48.562;9.192;2023-12-14T08:54:14;9.20;66.10
10300;DHT22;5195;48.562;9.192;2023-12-14T08:56:51;9.30;66.30
10300;DHT22;5195;48.562;9.192;2023-12-14T08:59:26;9.30;66.30
10300;DHT22;5195;48.562;9.192;2023-12-14T09:02:02;9.10;67.00
10300;DHT22;5195;48.562;9.192;2023-12-14T09:04:38;9.00;67.80
10300;DHT22;5195;48.562;9.192;2023-12-14T09:07:14;9.20;67.90
10300;DHT22;5195;48.562;9.192;2023-12-14T09:09:50;9.10;67.80
10300;DHT22;5195;48.562;9.192;2023-12-14T09:12:25;9.30;67.60
10300;DHT22;5195;48.562;9.192;2023-12-14T09:15:03;9.20;67.90
10300;DHT22;5195;48.562;9.192;2023-12-14T09:17:40;9.20;67.90
10300;DHT22;5195;48.562;9.192;2023-12-14T09:20:15;9.30;67.70
10300;DHT22;5195;48.562;9.192;2023-12-14T09:22:51;9.60;66.80
10300;DHT22;5195;48.562;9.192;2023-12-14T09:25:26;9.60;66.60
10300;DHT22;5195;48.562;9.192;2023-12-14T09:28:02;9.70;66.80
10300;DHT22;5195;48.562;9.192;2023-12-14T09:30:39;9.90;66.20
10300;DHT22;5195;48.562;9.192;2023-12-14T09:33:15;9.90;66.30
10300;DHT22;5195;48.562;9.192;2023-12-14T09:35:50;9.70;67.20
10300;DHT22;5195;48.562;9.192;2023-12-14T09:38:26;9.80;67.30
10300;DHT22;5195;48.562;9.192;2023-12-14T09:41:01;10.10;65.30
10300;DHT22;5195;48.562;9.192;2023-12-14T09:43:40;10.10;65.20
10300;DHT22;5195;48.562;9.192;2023-12-14T09:46:16;10.10;64.90
10300;DHT22;5195;48.562;9.192;2023-12-14T09:48:51;10.00;65.10
10300;DHT22;5195;48.562;9.192;2023-12-14T09:51:28;10.00;66.40
10300;DHT22;5195;48.562;9.192;2023-12-14T09:54:03;9.90;66.70
10300;DHT22;5195;48.562;9.192;2023-12-14T09:56:46;10.20;64.60
10300;DHT22;5195;48.562;9.192;2023-12-14T09:59:22;10.20;64.70
10300;DHT22;5195;48.562;9.192;2023-12-14T10:02:11;10.20;64.80
10300;DHT22;5195;48.562;9.192;2023-12-14T10:04:47;10.20;64.90
10300;DHT22;5195;48.562;9.192;2023-12-14T15:40:50;10.80;58.50
10300;DHT22;5195;48.562;9.192;2023-12-14T15:43:16;10.50;59.00
10300;DHT22;5195;48.562;9.192;2023-12-14T15:45:41;10.20;59.90
10300;DHT22;5195;48.562;9.192;2023-12-14T15:48:08;9.80;61.70
10300;DHT22;5195;48.562;9.192;2023-12-14T15:50:34;9.90;61.80
10300;DHT22;5195;48.562;9.192;2023-12-14T15:52:59;9.70;61.80
10300;DHT22;5195;48.562;9.192;2023-12-14T15:55:25;9.50;62.50
10300;DHT22;5195;48.562;9.192;2023-12-14T15:57:51;9.60;62.50
10300;DHT22;5195;48.562;9.192;2023-12-14T16:00:16;9.50;62.30
10300;DHT22;5195;48.562;9.192;2023-12-14T16:02:42;9.30;63.00
10300;DHT22;5195;48.562;9.192;2023-12-14T16:05:09;9.40;62.70
10300;DHT22;5195;48.562;9.192;2023-12-14T16:07:35;9.60;62.00
10300;DHT22;5195;48.562;9.192;2023-12-14T16:10:02;9.90;61.40
10300;DHT22;5195;48.562;9.192;2023-12-14T16:12:27;10.00;60.00
10300;DHT22;5195;48.562;9.192;2023-12-14T16:14:53;10.20;59.90
10300;DHT22;5195;48.562;9.192;2023-12-14T16:17:18;10.30;59.40
10300;DHT22;5195;48.562;9.192;2023-12-14T16:19:44;10.40;59.00
10300;DHT22;5195;48.562;9.192;2023-12-14T16:22:09;10.20;59.40
10300;DHT22;5195;48.562;9.192;2023-12-14T16:24:35;9.80;61.20
10300;DHT22;5195;48.562;9.192;2023-12-14T16:27:01;9.80;61.30
10300;DHT22;5195;48.562;9.192;2023-12-14T16:29:26;9.70;61.70
10300;DHT22;5195;48.562;9.192;2023-12-14T16:31:52;9.80;61.90
10300;DHT22;5195;48.562;9.192;2023-12-14T16:34:17;9.70;62.10
10300;DHT22;5195;48.562;9.192;2023-12-14T16:36:46;9.70;62.00
10300;DHT22;5195;48.562;9.192;2023-12-14T16:39:08;9.70;62.10
10300;DHT22;5195;48.562;9.192;2023-12-14T16:41:37;9.70;62.10
10300;DHT22;5195;48.562;9.192;2023-12-14T16:44:02;9.70;62.30
10300;DHT22;5195;48.562;9.192;2023-12-14T16:46:28;9.40;63.40
10300;DHT22;5195;48.562;9.192;2023-12-14T16:48:53;9.50;62.80
10300;DHT22;5195;48.562;9.192;2023-12-14T16:51:19;9.70;62.00
10300;DHT22;5195;48.562;9.192;2023-12-14T16:53:48;9.60;61.90
10300;DHT22;5195;48.562;9.192;2023-12-14T16:56:15;9.60;62.10
10300;DHT22;5195;48.562;9.192;2023-12-14T16:58:39;9.50;62.30
10300;DHT22;5195;48.562;9.192;2023-12-14T17:01:05;9.60;62.50
10300;DHT22;5195;48.562;9.192;2023-12-14T17:03:30;9.70;62.00
10300;DHT22;5195;48.562;9.192;2023-12-14T17:05:57;9.90;61.70
10300;DHT22;5195;48.562;9.192;2023-12-14T17:08:23;10.10;60.50
10300;DHT22;5195;48.562;9.192;2023-12-14T17:10:51;10.20;60.10
10300;DHT22;5195;48.562;9.192;2023-12-14T17:13:17;10.30;60.00
10300;DHT22;5195;48.562;9.192;2023-12-14T17:15:42;10.30;59.80
10300;DHT22;5195;48.562;9.192;2023-12-14T17:18:08;10.40;59.50
10300;DHT22;5195;48.562;9.192;2023-12-14T17:20:33;10.20;60.00
10300;DHT22;5195;48.562;9.192;2023-12-14T17:23:05;9.80;61.70
10300;DHT22;5195;48.562;9.192;2023-12-14T17:25:34;9.80;62.10
10300;DHT22;5195;48.562;9.192;2023-12-14T17:28:00;9.90;61.80
10300;DHT22;5195;48.562;9.192;2023-12-14T17:30:25;10.10;60.40
10300;DHT22;5195;48.562;9.192;2023-12-14T17:32:51;9.90;61.60
10300;DHT22;5195;48.562;9.192;2023-12-14T17:35:17;9.60;62.30
10300;DHT22;5195;48.562;9.192;2023-12-14T17:37:43;9.60;63.40
10300;DHT22;5195;48.562;9.192;2023-12-14T17:40:10;9.50;63.60
10300;DHT22;5195;48.562;9.192;2023-12-14T17:42:35;9.30;64.20
10300;DHT22;5195;48.562;9.192;2023-12-14T17:45:02;9.10;65.00
10300;DHT22;5195;48.562;9.192;2023-12-14T17:47:27;9.00;65.70
10300;DHT22;5195;48.562;9.192;2023-12-14T17:49:52;8.90;66.40
10300;DHT22;5195;48.562;9.192;2023-12-14T17:52:19;8.80;67.00
10300;DHT22;5195;48.562;9.192;2023-12-14T17:54:45;8.70;67.40
10300;DHT22;5195;48.562;9.192;2023-12-14T17:57:10;8.80;67.40
10300;DHT22;5195;48.562;9.192;2023-12-14T17:59:39;8.90;67.00
10300;DHT22;5195;48.562;9.192;2023-12-14T18:02:02;9.10;66.90
10300;DHT22;5195;48.562;9.192;2023-12-14T18:04:27;9.20;66.50
10300;DHT22;5195;48.562;9.192;2023-12-14T18:06:56;9.20;66.00
10300;DHT22;5195;48.562;9.192;2023-12-14T18:09:21;9.50;65.20
10300;DHT22;5195;48.562;9.192;2023-12-14T18:11:47;9.50;65.00
10300;DHT22;5195;48.562;9.192;2023-12-14T18:14:13;9.50;64.20
10300;DHT22;5195;48.562;9.192;2023-12-14T18:16:38;9.40;64.30
10300;DHT22;5195;48.562;9.192;2023-12-14T18:19:08;9.20;65.00
10300;DHT22;5195;48.562;9.192;2023-12-14T18:21:33;9.00;65.70
10300;DHT22;5195;48.562;9.192;2023-12-14T18:23:58;9.10;65.60
10300;DHT22;5195;48.562;9.192;2023-12-14T18:26:24;9.40;64.90
10300;DHT22;5195;48.562;9.192;2023-12-14T18:28:50;9.70;64.20
10300;DHT22;5195;48.562;9.192;2023-12-14T18:31:15;9.90;63.60
10300;DHT22;5195;48.562;9.192;2023-12-14T18:33:41;9.80;63.70
10300;DHT22;5195;48.562;9.192;2023-12-14T18:36:07;9.50;64.50
10300;DHT22;5195;48.562;9.192;2023-12-14T18:38:32;9.30;65.30
10300;DHT22;5195;48.562;9.192;2023-12-14T18:40:58;9.10;66.00
10300;DHT22;5195;48.562;9.192;2023-12-14T18:43:23;9.20;65.70
10300;DHT22;5195;48.562;9.192;2023-12-14T18:45:49;9.20;65.40
10300;DHT22;5195;48.562;9.192;2023-12-14T18:48:15;9.30;64.60
10300;DHT22;5195;48.562;9.192;2023-12-14T18:50:40;9.30;64.50
10300;DHT22;5195;48.562;9.192;2023-12-14T18:53:06;9.10;65.20
10300;DHT22;5195;48.562;9.192;2023-12-14T18:55:31;9.20;64.70
10300;DHT22;5195;48.562;9.192;2023-12-14T18:57:57;9.10;64.50
10300;DHT22;5195;48.562;9.192;2023-12-14T19:00:23;9.20;63.50
10300;DHT22;5195;48.562;9.192;2023-12-14T19:02:49;9.40;62.00
10300;DHT22;5195;48.562;9.192;2023-12-14T19:05:15;9.20;61.90
10300;DHT22;5195;48.562;9.192;2023-12-14T19:07:40;8.90;62.70
10300;DHT22;5195;48.562;9.192;2023-12-14T19:10:06;8.60;63.40
10300;DHT22;5195;48.562;9.192;2023-12-14T19:12:32;8.40;64.10
10300;DHT22;5195;48.562;9.192;2023-12-14T19:14:57;8.20;65.00
10300;DHT22;5195;48.562;9.192;2023-12-14T19:17:24;8.30;64.70
10300;DHT22;5195;48.562;9.192;2023-12-14T19:19:49;8.30;64.50
10300;DHT22;5195;48.562;9.192;2023-12-14T19:22:15;8.20;65.00
10300;DHT22;5195;48.562;9.192;2023-12-14T19:24:41;8.00;65.50
10300;DHT22;5195;48.562;9.192;2023-12-14T19:27:06;7.90;66.20
10300;DHT22;5195;48.562;9.192;2023-12-14T19:29:33;7.80;66.60
10300;DHT22;5195;48.562;9.192;2023-12-14T19:32:00;8.00;66.50
10300;DHT22;5195;48.562;9.192;2023-12-14T19:34:25;8.40;65.20
10300;DHT22;5195;48.562;9.192;2023-12-14T19:36:51;8.70;64.10
10300;DHT22;5195;48.562;9.192;2023-12-14T19:39:16;8.90;63.30
10300;DHT22;5195;48.562;9.192;2023-12-14T19:41:42;8.90;63.40
10300;DHT22;5195;48.562;9.192;2023-12-14T19:44:08;8.90;63.30
10300;DHT22;5195;48.562;9.192;2023-12-14T19:46:33;8.80;63.50
10300;DHT22;5195;48.562;9.192;2023-12-14T19:48:59;8.60;64.30
10300;DHT22;5195;48.562;9.192;2023-12-14T19:51:24;8.70;64.40
10300;DHT22;5195;48.562;9.192;2023-12-14T19:53:50;8.70;64.60
10300;DHT22;5195;48.562;9.192;2023-12-14T19:56:17;8.80;64.30
10300;DHT22;5195;48.562;9.192;2023-12-14T19:58:42;9.00;63.40
10300;DHT22;5195;48.562;9.192;2023-12-14T20:01:08;9.00;63.40
10300;DHT22;5195;48.562;9.192;2023-12-14T20:03:34;9.10;63.20
10300;DHT22;5195;48.562;9.192;2023-12-14T20:05:59;9.30;62.60
10300;DHT22;5195;48.562;9.192;2023-12-14T20:08:25;9.20;62.70
10300;DHT22;5195;48.562;9.192;2023-12-14T20:10:50;9.20;62.60
10300;DHT22;5195;48.562;9.192;2023-12-14T20:13:17;9.10;63.00
10300;DHT22;5195;48.562;9.192;2023-12-14T20:15:43;9.10;62.90
10300;DHT22;5195;48.562;9.192;2023-12-14T20:18:10;9.00;63.10
10300;DHT22;5195;48.562;9.192;2023-12-14T20:20:37;8.80;63.80
10300;DHT22;5195;48.562;9.192;2023-12-14T20:23:02;8.60;64.60
10300;DHT22;5195;48.562;9.192;2023-12-14T20:25:28;8.70;64.30
10300;DHT22;5195;48.562;9.192;2023-12-14T20:27:53;8.80;64.40
10300;DHT22;5195;48.562;9.192;2023-12-14T20:30:19;8.60;64.90
10300;DHT22;5195;48.562;9.192;2023-12-14T20:32:44;8.50;65.60
10300;DHT22;5195;48.562;9.192;2023-12-14T20:35:10;8.40;66.10
10300;DHT22;5195;48.562;9.192;2023-12-14T20:37:46;8.30;66.70
10300;DHT22;5195;48.562;9.192;2023-12-14T20:40:22;8.90;64.20
10300;DHT22;5195;48.562;9.192;2023-12-14T20:42:58;8.80;64.10
10300;DHT22;5195;48.562;9.192;2023-12-14T20:45:34;9.10;63.10
10300;DHT22;5195;48.562;9.192;2023-12-14T20:48:11;9.20;62.90
10300;DHT22;5195;48.562;9.192;2023-12-14T20:50:46;9.20;62.90
10300;DHT22;5195;48.562;9.192;2023-12-14T20:53:22;9.10;63.10
10300;DHT22;5195;48.562;9.192;2023-12-14T20:55:57;9.20;62.70
10300;DHT22;5195;48.562;9.192;2023-12-14T20:58:33;9.10;62.90
10300;DHT22;5195;48.562;9.192;2023-12-14T21:01:08;8.80;63.70
10300;DHT22;5195;48.562;9.192;2023-12-14T21:03:44;8.60;64.50
10300;DHT22;5195;48.562;9.192;2023-12-14T21:06:20;8.30;66.20
10300;DHT22;5195;48.562;9.192;2023-12-14T21:08:56;8.30;65.60
10300;DHT22;5195;48.562;9.192;2023-12-14T21:11:32;8.20;66.10
10300;DHT22;5195;48.562;9.192;2023-12-14T21:14:07;8.10;66.40
10300;DHT22;5195;48.562;9.192;2023-12-14T21:16:43;7.90;66.80
10300;DHT22;5195;48.562;9.192;2023-12-14T21:19:19;7.80;67.10
10300;DHT22;5195;48.562;9.192;2023-12-14T21:21:54;8.00;66.40
10300;DHT22;5195;48.562;9.192;2023-12-14T21:24:30;8.00;65.80
10300;DHT22;5195;48.562;9.192;2023-12-14T21:27:05;8.20;65.30
10300;DHT22;5195;48.562;9.192;2023-12-14T21:30:01;7.80;65.00
10300;DHT22;5195;48.562;9.192;2023-12-14T21:32:37;7.80;65.00
10300;DHT22;5195;48.562;9.192;2023-12-14T21:35:13;7.50;65.60
10300;DHT22;5195;48.562;9.192;2023-12-14T21:37:48;7.30;65.90
10300;DHT22;5195;48.562;9.192;2023-12-14T21:40:24;7.10;66.40
10300;DHT22;5195;48.562;9.192;2023-12-14T21:43:01;6.90;66.90
10300;DHT22;5195;48.562;9.192;2023-12-14T21:45:37;6.70;67.90
10300;DHT22;5195;48.562;9.192;2023-12-14T21:48:14;6.70;67.90
10300;DHT22;5195;48.562;9.192;2023-12-14T21:50:49;6.60;68.30
10300;DHT22;5195;48.562;9.192;2023-12-14T21:53:25;6.90;67.20
10300;DHT22;5195;48.562;9.192;2023-12-14T21:56:01;7.20;64.60
10300;DHT22;5195;48.562;9.192;2023-12-14T21:58:37;7.20;64.60
10300;DHT22;5195;48.562;9.192;2023-12-14T22:01:14;7.40;63.90
10300;DHT22;5195;48.562;9.192;2023-12-14T22:03:50;7.50;63.50
10300;DHT22;5195;48.562;9.192;2023-12-14T22:06:26;7.40;63.40
10300;DHT22;5195;48.562;9.192;2023-12-14T22:09:02;7.20;64.30
10300;DHT22;5195;48.562;9.192;2023-12-14T22:11:38;7.00;65.20
10300;DHT22;5195;48.562;9.192;2023-12-14T22:14:14;7.00;65.20
10300;DHT22;5195;48.562;9.192;2023-12-14T22:16:50;7.20;64.90
10300;DHT22;5195;48.562;9.192;2023-12-14T22:19:26;7.30;64.60
10300;DHT22;5195;48.562;9.192;2023-12-14T22:22:03;7.30;64.50
10300;DHT22;5195;48.562;9.192;2023-12-14T22:24:38;7.30;64.50
10300;DHT22;5195;48.562;9.192;2023-12-14T22:27:14;7.70;63.20
10300;DHT22;5195;48.562;9.192;2023-12-14T22:29:50;7.60;63.10
10300;DHT22;5195;48.562;9.192;2023-12-14T22:32:25;7.80;63.10
10300;DHT22;5195;48.562;9.192;2023-12-14T22:35:02;8.30;61.40
10300;DHT22;5195;48.562;9.192;2023-12-14T22:37:37;8.30;61.10
10300;DHT22;5195;48.562;9.192;2023-12-14T22:40:14;8.30;61.20
10300;DHT22;5195;48.562;9.192;2023-12-14T22:42:49;8.30;61.10
10300;DHT22;5195;48.562;9.192;2023-12-14T22:45:25;8.00;62.20
10300;DHT22;5195;48.562;9.192;2023-12-14T22:48:00;7.80;63.10
10300;DHT22;5195;48.562;9.192;2023-12-14T22:50:36;7.60;63.70
10300;DHT22;5195;48.562;9.192;2023-12-14T22:53:11;7.40;64.40
10300;DHT22;5195;48.562;9.192;2023-12-14T22:55:50;7.50;63.60
10300;DHT22;5195;48.562;9.192;2023-12-14T22:58:26;7.90;62.20
10300;DHT22;5195;48.562;9.192;2023-12-14T23:01:01;7.80;62.00
10300;DHT22;5195;48.562;9.192;2023-12-14T23:03:37;7.90;62.00
10300;DHT22;5195;48.562;9.192;2023-12-14T23:06:13;8.20;61.10
